Time;durP1;ratioP1;P1;durP2;ratioP2;P2;SDS_P1;SDS_P2;PMS_P1;PMS_P2;Temp;Humidity;BMP_temperature;BMP_pressure;BME280_temperature;BME280_humidity;BME280_pressure;Samples;Min_cycle;Max_cycle;Signal;HPM_P1;HPM_P2
2023/01/15 00:00:12;;;;;;;3.22;2.92;;;;;;;;;;5028492;28;20016;-72
2023/01/15 00:02:38;;;;;;;0.20;0.20;;;;;;;;;;5029098;28;20065;-72
2023/01/15 00:05:03;;;;;;;0.50;0.50;;;;;;;;;;5028794;28;20385;-72
2023/01/15 00:07:30;;;;;;;0.30;0.30;;;;;;;;;;5029549;28;20080;-71
2023/01/15 00:09:55;;;;;;;0.55;0.52;;;;;;;;;;5027095;28;20433;-70
2023/01/15 00:12:20;;;;;;;0.95;0.95;;;;;;;;;;5029354;28;20045;-69
2023/01/15 00:14:46;;;;;;;0.17;0.17;;;;;;;;;;5011740;28;20112;-70
2023/01/15 00:17:11;;;;;;;0.20;0.20;;;;;;;;;;5014652;28;20064;-69
2023/01/15 00:19:37;;;;;;;0.22;0.22;;;;;;;;;;5033233;28;20026;-69
2023/01/15 00:22:02;;;;;;;6.88;6.32;;;;;;;;;;5033115;28;20057;-69
2023/01/15 00:29:56;;;;;;;0.47;0.47;;;;;;;;;;5032173;28;20385;-69
2023/01/15 00:32:21;;;;;;;1.40;1.30;;;;;;;;;;5014637;28;20025;-71
2023/01/15 00:34:47;;;;;;;6.88;3.03;;;;;;;;;;5032721;28;20014;-69
2023/01/15 00:37:13;;;;;;;0.30;0.30;;;;;;;;;;5033137;28;20104;-71
2023/01/15 00:39:39;;;;;;;0.22;0.22;;;;;;;;;;5015475;28;20152;-70
2023/01/15 00:42:04;;;;;;;2.25;2.05;;;;;;;;;;5015153;28;20449;-70
2023/01/15 00:44:32;;;;;;;4.95;4.68;;;;;;;;;;5032764;28;20029;-69
2023/01/15 00:46:58;;;;;;;0.20;0.20;;;;;;;;;;5032701;28;20025;-70
2023/01/15 00:49:23;;;;;;;1.33;1.27;;;;;;;;;;5032547;28;20036;-69
2023/01/15 00:51:49;;;;;;;1.45;1.35;;;;;;;;;;5032570;28;20030;-70
2023/01/15 00:54:15;;;;;;;1.38;1.33;;;;;;;;;;5034617;28;20089;-71
2023/01/15 00:56:41;;;;;;;4.05;3.83;;;;;;;;;;5018961;28;20113;-69
2023/01/15 00:59:06;;;;;;;0.25;0.25;;;;;;;;;;5036330;28;20022;-71
2023/01/15 01:01:32;;;;;;;0.10;0.10;;;;;;;;;;5034557;28;20030;-72
2023/01/15 01:03:57;;;;;;;0.10;0.10;;;;;;;;;;5036011;28;20389;-70
2023/01/15 01:06:23;;;;;;;0.95;0.95;;;;;;;;;;5018493;28;20049;-70
2023/01/15 01:08:48;;;;;;;0.10;0.10;;;;;;;;;;5034886;28;20037;-69
2023/01/15 01:11:16;;;;;;;0.30;0.30;;;;;;;;;;5018941;28;20456;-70
2023/01/15 01:13:42;;;;;;;1.55;1.27;;;;;;;;;;5036287;28;20124;-70
2023/01/15 01:16:25;;;;;;;2.38;2.28;;;;;;;;;;5035719;28;20080;-69
2023/01/15 01:18:51;;;;;;;2.08;1.88;;;;;;;;;;5035866;28;20175;-69
2023/01/15 01:21:17;;;;;;;0.15;0.15;;;;;;;;;;5036126;28;20504;-69
2023/01/15 01:23:42;;;;;;;1.55;1.45;;;;;;;;;;5035958;28;20030;-69
2023/01/15 01:26:09;;;;;;;0.80;0.80;;;;;;;;;;5034972;28;20088;-69
2023/01/15 01:28:34;;;;;;;0.22;0.22;;;;;;;;;;5018281;28;20029;-69
2023/01/15 01:31:03;;;;;;;1.45;1.45;;;;;;;;;;5018205;28;20031;-69
2023/01/15 01:33:28;;;;;;;0.22;0.22;;;;;;;;;;5035907;28;20505;-69
2023/01/15 01:35:54;;;;;;;2.97;1.50;;;;;;;;;;5036166;28;20113;-69
2023/01/15 01:38:19;;;;;;;1.20;1.20;;;;;;;;;;5036067;28;20096;-69
2023/01/15 01:40:45;;;;;;;1.10;1.10;;;;;;;;;;5035971;28;20044;-71
2023/01/15 01:43:19;;;;;;;0.10;0.10;;;;;;;;;;5035903;28;20025;-72
2023/01/15 01:45:44;;;;;;;2.03;1.92;;;;;;;;;;5035660;28;20052;-70
2023/01/15 01:48:10;;;;;;;0.10;0.10;;;;;;;;;;5034296;28;20030;-70
2023/01/15 01:50:36;;;;;;;0.22;0.22;;;;;;;;;;5035648;28;20068;-69
2023/01/15 01:53:05;;;;;;;0.10;0.10;;;;;;;;;;5035719;28;20067;-69
2023/01/15 01:55:32;;;;;;;0.10;0.10;;;;;;;;;;5035663;28;20357;-70
2023/01/15 01:57:59;;;;;;;0.50;0.50;;;;;;;;;;5034346;28;20032;-70
2023/01/15 02:00:25;;;;;;;0.10;0.10;;;;;;;;;;5034033;28;20022;-70
2023/01/15 02:02:51;;;;;;;2.10;1.85;;;;;;;;;;5017649;28;20036;-69
2023/01/15 02:05:43;;;;;;;2.30;1.00;;;;;;;;;;5035211;28;20141;-69
2023/01/15 02:08:08;;;;;;;0.20;0.20;;;;;;;;;;5014666;28;20037;-69
2023/01/15 02:10:34;;;;;;;0.40;0.40;;;;;;;;;;5035416;28;20465;-71
2023/01/15 02:13:06;;;;;;;0.70;0.70;;;;;;;;;;5033891;28;20032;-70
2023/01/15 02:15:34;;;;;;;3.67;2.03;;;;;;;;;;5035293;28;20029;-68
2023/01/15 02:18:19;;;;;;;0.85;0.82;;;;;;;;;;5033956;28;20061;-69
2023/01/15 02:20:46;;;;;;;0.45;0.45;;;;;;;;;;5001074;28;20022;-70
2023/01/15 02:23:31;;;;;;;0.10;0.10;;;;;;;;;;5033682;28;20090;-69
2023/01/15 02:26:17;;;;;;;6.03;3.40;;;;;;;;;;5035102;28;20417;-69
2023/01/15 02:28:46;;;;;;;0.20;0.20;;;;;;;;;;5016591;28;20120;-70
2023/01/15 02:31:14;;;;;;;0.05;0.05;;;;;;;;;;5035125;28;20017;-69
2023/01/15 02:34:02;;;;;;;4.78;2.70;;;;;;;;;;5017121;28;20365;-70
2023/01/15 02:36:30;;;;;;;1.08;1.08;;;;;;;;;;5033361;28;20029;-69
2023/01/15 02:39:00;;;;;;;1.15;0.98;;;;;;;;;;5033670;28;20155;-69
2023/01/15 02:41:32;;;;;;;0.80;0.80;;;;;;;;;;5034833;28;20025;-69
2023/01/15 02:43:58;;;;;;;0.63;0.63;;;;;;;;;;5016951;28;20588;-70
2023/01/15 02:46:27;;;;;;;0.63;0.63;;;;;;;;;;5016676;28;20362;-71
2023/01/15 02:48:54;;;;;;;0.63;0.63;;;;;;;;;;5016920;28;20040;-73
2023/01/15 02:51:24;;;;;;;0.35;0.35;;;;;;;;;;5033398;28;20025;-72
2023/01/15 02:53:52;;;;;;;0.10;0.10;;;;;;;;;;5033398;28;20364;-71
2023/01/15 02:56:20;;;;;;;0.30;0.30;;;;;;;;;;5033347;28;20042;-72
2023/01/15 02:58:52;;;;;;;0.10;0.10;;;;;;;;;;5033228;28;20029;-72
2023/01/15 03:01:23;;;;;;;4.17;3.87;;;;;;;;;;5032961;28;20026;-70
2023/01/15 03:03:52;;;;;;;0.68;0.68;;;;;;;;;;5016210;28;20112;-70
2023/01/15 03:06:17;;;;;;;0.40;0.40;;;;;;;;;;5016655;28;20018;-70
2023/01/15 03:08:44;;;;;;;0.10;0.10;;;;;;;;;;5016458;28;20481;-70
2023/01/15 03:11:17;;;;;;;1.27;1.17;;;;;;;;;;4999938;28;20468;-72
2023/01/15 03:13:58;;;;;;;0.52;0.52;;;;;;;;;;5016246;28;20060;-72
2023/01/15 03:16:39;;;;;;;0.60;0.60;;;;;;;;;;5016116;28;20029;-72
2023/01/15 03:19:24;;;;;;;0.20;0.20;;;;;;;;;;5016677;28;20052;-72
2023/01/15 03:21:54;;;;;;;0.10;0.10;;;;;;;;;;5016291;28;20022;-72
2023/01/15 03:24:23;;;;;;;0.30;0.30;;;;;;;;;;5032501;28;20495;-72
2023/01/15 03:26:49;;;;;;;0.47;0.47;;;;;;;;;;5032766;28;20024;-71
2023/01/15 03:29:15;;;;;;;1.92;1.85;;;;;;;;;;5016154;28;20033;-72
2023/01/15 03:31:43;;;;;;;0.55;0.55;;;;;;;;;;4999918;28;20021;-72
2023/01/15 03:34:10;;;;;;;0.63;0.63;;;;;;;;;;5039868;28;20017;-72
2023/01/15 03:36:38;;;;;;;0.10;0.10;;;;;;;;;;5035442;28;20021;-72
2023/01/15 03:39:03;;;;;;;0.40;0.40;;;;;;;;;;5035816;28;20523;-72
2023/01/15 03:42:01;;;;;;;0.10;0.10;;;;;;;;;;5053683;28;20024;-73
2023/01/15 03:44:31;;;;;;;0.32;0.32;;;;;;;;;;5029227;28;20519;-73
2023/01/15 03:46:58;;;;;;;0.10;0.10;;;;;;;;;;5032207;28;20029;-73
2023/01/15 03:49:30;;;;;;;0.10;0.10;;;;;;;;;;5033272;28;20021;-72
2023/01/15 03:52:15;;;;;;;0.90;0.85;;;;;;;;;;5032367;28;20461;-71
2023/01/15 03:54:59;;;;;;;0.10;0.10;;;;;;;;;;5033875;28;20056;-72
2023/01/15 03:57:36;;;;;;;0.20;0.20;;;;;;;;;;5015708;28;20095;-71
2023/01/15 04:00:14;;;;;;;0.10;0.10;;;;;;;;;;5016017;28;20033;-72
2023/01/15 04:02:47;;;;;;;0.10;0.10;;;;;;;;;;5036223;28;20072;-73
2023/01/15 04:05:16;;;;;;;0.10;0.10;;;;;;;;;;5031367;28;20072;-71
2023/01/15 04:07:45;;;;;;;0.10;0.10;;;;;;;;;;5031405;28;20079;-71
2023/01/15 04:10:11;;;;;;;0.10;0.10;;;;;;;;;;5031270;28;20036;-71
2023/01/15 04:12:37;;;;;;;0.20;0.20;;;;;;;;;;5031932;28;20388;-71
2023/01/15 04:15:06;;;;;;;0.20;0.20;;;;;;;;;;5031652;28;20104;-72
2023/01/15 04:17:32;;;;;;;0.25;0.25;;;;;;;;;;5031101;28;20105;-71
2023/01/15 04:20:00;;;;;;;0.10;0.10;;;;;;;;;;5031033;28;20056;-73
2023/01/15 04:22:25;;;;;;;1.13;1.10;;;;;;;;;;5031459;28;20060;-72
2023/01/15 04:24:53;;;;;;;0.10;0.10;;;;;;;;;;5049263;28;20079;-71
2023/01/15 04:27:19;;;;;;;0.10;0.10;;;;;;;;;;5049651;28;20025;-71
2023/01/15 04:29:44;;;;;;;1.95;1.65;;;;;;;;;;5021488;28;20029;-71
2023/01/15 04:32:09;;;;;;;1.95;1.85;;;;;;;;;;5033512;28;20453;-71
2023/01/15 04:34:35;;;;;;;0.10;0.10;;;;;;;;;;5033430;28;20036;-72
2023/01/15 04:37:00;;;;;;;0.10;0.10;;;;;;;;;;5033374;28;20062;-72
2023/01/15 04:39:26;;;;;;;1.50;1.50;;;;;;;;;;5033144;28;20373;-71
2023/01/15 04:44:36;;;;;;;0.38;0.30;;;;;;;;;;5052849;28;20025;-71
2023/01/15 04:47:02;;;;;;;3.22;2.97;;;;;;;;;;5052664;28;20029;-71
2023/01/15 04:49:27;;;;;;;0.15;0.15;;;;;;;;;;5035288;28;20043;-71
2023/01/15 04:51:53;;;;;;;0.10;0.10;;;;;;;;;;5034894;28;20056;-71
2023/01/15 04:54:19;;;;;;;0.10;0.10;;;;;;;;;;5052710;28;20028;-74
2023/01/15 04:56:51;;;;;;;0.10;0.10;;;;;;;;;;5035254;28;20041;-73
2023/01/15 04:59:18;;;;;;;1.17;1.17;;;;;;;;;;5052803;28;20363;-73
2023/01/15 05:01:43;;;;;;;0.10;0.10;;;;;;;;;;5038356;28;20020;-74
2023/01/15 05:04:08;;;;;;;0.10;0.10;;;;;;;;;;5032646;28;20049;-72
2023/01/15 05:06:34;;;;;;;0.10;0.10;;;;;;;;;;5032946;28;20021;-73
2023/01/15 05:09:00;;;;;;;0.10;0.10;;;;;;;;;;5032459;28;20069;-71
2023/01/15 05:11:26;;;;;;;0.10;0.10;;;;;;;;;;5032855;28;20477;-71
2023/01/15 05:13:51;;;;;;;0.10;0.10;;;;;;;;;;5032357;28;20029;-71
2023/01/15 05:16:18;;;;;;;1.15;1.08;;;;;;;;;;5032544;28;20070;-71
2023/01/15 05:18:44;;;;;;;0.15;0.15;;;;;;;;;;5032864;28;20025;-72
2023/01/15 05:21:20;;;;;;;0.60;0.60;;;;;;;;;;5031728;28;20631;-72
2023/01/15 05:23:46;;;;;;;0.10;0.10;;;;;;;;;;5032624;28;20444;-73
2023/01/15 05:26:12;;;;;;;0.55;0.55;;;;;;;;;;5032497;28;20075;-72
2023/01/15 05:28:37;;;;;;;0.10;0.10;;;;;;;;;;5032367;28;20336;-72
2023/01/15 05:31:07;;;;;;;0.10;0.10;;;;;;;;;;5032799;28;20036;-72
2023/01/15 05:33:33;;;;;;;0.13;0.13;;;;;;;;;;5032031;28;20034;-71
2023/01/15 05:36:05;;;;;;;0.17;0.17;;;;;;;;;;5031960;28;20024;-72
2023/01/15 05:38:31;;;;;;;0.10;0.10;;;;;;;;;;5032440;28;20025;-71
2023/01/15 05:40:57;;;;;;;0.50;0.50;;;;;;;;;;5031590;28;20029;-72
2023/01/15 05:43:22;;;;;;;0.10;0.10;;;;;;;;;;5032160;28;20033;-72
2023/01/15 05:45:48;;;;;;;12.73;4.85;;;;;;;;;;5032036;28;20049;-71
2023/01/15 05:48:13;;;;;;;0.10;0.10;;;;;;;;;;5032135;28;20115;-71
2023/01/15 05:50:38;;;;;;;0.90;0.90;;;;;;;;;;5031703;28;20022;-72
2023/01/15 05:53:04;;;;;;;1.60;1.52;;;;;;;;;;5031997;28;20392;-72
2023/01/15 05:55:29;;;;;;;0.10;0.10;;;;;;;;;;5031738;28;20020;-71
2023/01/15 05:57:56;;;;;;;2.28;2.08;;;;;;;;;;5031505;28;20025;-72
2023/01/15 06:00:21;;;;;;;0.10;0.10;;;;;;;;;;5030323;28;20021;-71
2023/01/15 06:02:48;;;;;;;0.10;0.10;;;;;;;;;;5031763;28;20108;-72
2023/01/15 06:05:13;;;;;;;0.10;0.10;;;;;;;;;;5031296;28;20044;-72
2023/01/15 06:07:39;;;;;;;0.15;0.15;;;;;;;;;;5031589;28;20026;-72
2023/01/15 06:10:04;;;;;;;0.22;0.22;;;;;;;;;;5041658;28;20040;-72
2023/01/15 06:12:31;;;;;;;0.40;0.40;;;;;;;;;;5031033;28;20030;-71
2023/01/15 06:14:56;;;;;;;0.85;0.85;;;;;;;;;;5031114;28;20384;-71
2023/01/15 06:17:22;;;;;;;0.20;0.20;;;;;;;;;;5031349;28;20105;-71
2023/01/15 06:19:47;;;;;;;0.45;0.45;;;;;;;;;;5030742;28;20030;-71
2023/01/15 06:22:12;;;;;;;0.40;0.40;;;;;;;;;;5031142;28;20369;-72
2023/01/15 06:24:38;;;;;;;0.13;0.13;;;;;;;;;;5013457;28;20030;-69
2023/01/15 06:27:03;;;;;;;0.10;0.10;;;;;;;;;;5031338;28;20037;-72
2023/01/15 06:29:29;;;;;;;0.32;0.32;;;;;;;;;;5030569;28;20489;-71
2023/01/15 06:31:54;;;;;;;0.10;0.10;;;;;;;;;;5030258;28;20517;-69
2023/01/15 06:34:19;;;;;;;0.73;0.73;;;;;;;;;;5030720;28;20041;-70
2023/01/15 06:36:45;;;;;;;2.05;1.95;;;;;;;;;;5031288;28;20109;-71
2023/01/15 06:39:10;;;;;;;0.17;0.17;;;;;;;;;;5030711;28;20381;-70
2023/01/15 06:47:21;;;;;;;0.35;0.35;;;;;;;;;;5030390;28;20025;-70
2023/01/15 06:49:47;;;;;;;1.08;0.75;;;;;;;;;;5030955;28;20040;-70
2023/01/15 06:52:12;;;;;;;0.10;0.10;;;;;;;;;;5029605;28;20253;-70
2023/01/15 06:54:38;;;;;;;0.20;0.20;;;;;;;;;;5030420;28;20338;-70
2023/01/15 06:57:03;;;;;;;1.17;1.17;;;;;;;;;;5030495;28;20026;-72
2023/01/15 06:59:30;;;;;;;0.10;0.10;;;;;;;;;;5030177;28;20354;-71
2023/01/15 07:01:55;;;;;;;0.10;0.10;;;;;;;;;;5028527;28;20041;-71
2023/01/15 07:04:21;;;;;;;0.50;0.50;;;;;;;;;;5030005;28;20084;-71
2023/01/15 07:06:46;;;;;;;0.25;0.25;;;;;;;;;;5012012;28;20029;-70
2023/01/15 07:09:12;;;;;;;0.10;0.10;;;;;;;;;;5029788;28;20032;-70
2023/01/15 07:11:48;;;;;;;0.17;0.17;;;;;;;;;;5030318;28;20029;-70
2023/01/15 07:14:21;;;;;;;2.25;2.05;;;;;;;;;;5030076;28;20032;-69
2023/01/15 07:16:47;;;;;;;1.48;1.38;;;;;;;;;;4996383;28;20033;-71
2023/01/15 07:19:13;;;;;;;0.10;0.10;;;;;;;;;;5030332;28;20481;-70
2023/01/15 07:21:38;;;;;;;0.10;0.10;;;;;;;;;;5030135;28;20029;-70
2023/01/15 07:24:04;;;;;;;0.10;0.10;;;;;;;;;;5030168;28;20028;-70
2023/01/15 07:26:29;;;;;;;0.10;0.10;;;;;;;;;;5030070;28;20021;-69
2023/01/15 07:28:54;;;;;;;0.10;0.10;;;;;;;;;;5029766;28;20094;-70
2023/01/15 07:31:20;;;;;;;0.10;0.10;;;;;;;;;;5029597;28;20438;-70
2023/01/15 07:33:45;;;;;;;0.30;0.30;;;;;;;;;;5030015;28;20087;-68
2023/01/15 07:36:11;;;;;;;0.10;0.10;;;;;;;;;;5029864;28;20015;-68
2023/01/15 07:38:36;;;;;;;0.10;0.10;;;;;;;;;;5030123;28;20404;-71
2023/01/15 07:51:58;;;;;;;0.30;0.30;;;;;;;;;;5029644;28;20033;-71
2023/01/15 07:54:23;;;;;;;0.10;0.10;;;;;;;;;;5029468;28;20013;-74
2023/01/15 07:56:50;;;;;;;0.15;0.15;;;;;;;;;;5011731;28;20044;-71
2023/01/15 07:59:15;;;;;;;0.15;0.15;;;;;;;;;;5029513;28;20461;-71
2023/01/15 08:01:41;;;;;;;0.20;0.20;;;;;;;;;;5028820;28;20022;-71
2023/01/15 08:04:06;;;;;;;0.20;0.20;;;;;;;;;;5029144;28;20451;-71
2023/01/15 08:06:32;;;;;;;2.53;2.38;;;;;;;;;;5029543;28;20454;-71
2023/01/15 08:08:57;;;;;;;0.20;0.20;;;;;;;;;;5028638;28;20064;-71
2023/01/15 08:16:51;;;;;;;0.10;0.10;;;;;;;;;;5029316;28;20105;-70
2023/01/15 08:19:16;;;;;;;0.20;0.20;;;;;;;;;;5029610;28;20026;-71
2023/01/15 08:21:42;;;;;;;0.20;0.20;;;;;;;;;;5028178;28;20452;-69
2023/01/15 08:24:07;;;;;;;0.10;0.10;;;;;;;;;;5028907;28;20082;-69
2023/01/15 08:26:33;;;;;;;0.20;0.20;;;;;;;;;;5028637;28;20030;-70
2023/01/15 08:28:58;;;;;;;0.10;0.10;;;;;;;;;;5029170;28;20026;-70
2023/01/15 08:31:23;;;;;;;0.30;0.30;;;;;;;;;;5028348;28;20026;-72
2023/01/15 08:33:49;;;;;;;0.20;0.20;;;;;;;;;;5026244;28;20034;-70
2023/01/15 08:36:15;;;;;;;0.35;0.30;;;;;;;;;;5029230;28;20033;-73
2023/01/15 08:38:41;;;;;;;0.65;0.65;;;;;;;;;;5029507;28;20021;-72
2023/01/15 08:41:06;;;;;;;0.10;0.10;;;;;;;;;;5028938;28;20040;-72
2023/01/15 08:43:32;;;;;;;0.28;0.28;;;;;;;;;;5028933;28;20057;-72
2023/01/15 08:46:02;;;;;;;0.22;0.22;;;;;;;;;;5029138;28;20013;-73
2023/01/15 08:48:28;;;;;;;0.10;0.10;;;;;;;;;;5029731;28;20357;-72
2023/01/15 08:50:54;;;;;;;0.10;0.10;;;;;;;;;;5029071;28;20372;-72
2023/01/15 08:53:20;;;;;;;2.05;1.95;;;;;;;;;;5028915;28;20022;-72
2023/01/15 08:55:46;;;;;;;3.05;2.78;;;;;;;;;;5028755;28;20067;-71
2023/01/15 08:58:11;;;;;;;0.10;0.10;;;;;;;;;;5029100;28;20027;-71
2023/01/15 09:00:37;;;;;;;0.20;0.20;;;;;;;;;;5029015;28;20022;-72
2023/01/15 09:03:02;;;;;;;7.38;6.90;;;;;;;;;;5028997;28;20033;-72
2023/01/15 09:05:28;;;;;;;0.10;0.10;;;;;;;;;;5028705;28;20065;-71
2023/01/15 09:07:54;;;;;;;0.65;0.65;;;;;;;;;;5028645;28;20368;-72
2023/01/15 09:10:19;;;;;;;0.15;0.15;;;;;;;;;;5029158;28;20036;-73
2023/01/15 09:12:45;;;;;;;0.10;0.10;;;;;;;;;;5029022;28;20376;-73
2023/01/15 09:15:10;;;;;;;0.10;0.10;;;;;;;;;;5030316;28;20469;-72
2023/01/15 09:17:39;;;;;;;0.10;0.10;;;;;;;;;;5031390;28;20104;-72
2023/01/15 09:20:05;;;;;;;0.10;0.10;;;;;;;;;;5032099;28;20020;-72
2023/01/15 09:22:31;;;;;;;0.10;0.10;;;;;;;;;;5032199;28;20018;-72
2023/01/15 09:24:56;;;;;;;0.28;0.28;;;;;;;;;;5032577;28;20022;-71
2023/01/15 09:27:21;;;;;;;0.10;0.10;;;;;;;;;;5032601;28;20048;-70
2023/01/15 09:29:47;;;;;;;0.10;0.10;;;;;;;;;;5032170;28;20032;-72
2023/01/15 09:32:12;;;;;;;0.20;0.20;;;;;;;;;;5031523;28;20040;-71
2023/01/15 09:34:38;;;;;;;0.10;0.10;;;;;;;;;;5031476;28;20021;-70
2023/01/15 09:37:04;;;;;;;0.93;0.93;;;;;;;;;;5013672;28;20036;-70
2023/01/15 09:39:29;;;;;;;0.30;0.30;;;;;;;;;;5014716;28;20032;-70
2023/01/15 09:42:07;;;;;;;0.40;0.40;;;;;;;;;;5030950;28;20457;-70
2023/01/15 09:44:38;;;;;;;0.10;0.10;;;;;;;;;;5012805;28;20025;-70
2023/01/15 09:47:08;;;;;;;0.15;0.15;;;;;;;;;;5031868;28;20022;-72
2023/01/15 09:49:51;;;;;;;0.20;0.20;;;;;;;;;;5031872;28;20048;-71
2023/01/15 09:52:23;;;;;;;0.30;0.30;;;;;;;;;;5031427;28;20393;-70
2023/01/15 09:55:09;;;;;;;0.10;0.10;;;;;;;;;;5028016;28;20029;-74
2023/01/15 09:57:35;;;;;;;1.17;1.17;;;;;;;;;;5035685;28;20044;-73
2023/01/15 10:00:04;;;;;;;0.10;0.10;;;;;;;;;;5032704;28;20021;-75
2023/01/15 10:02:49;;;;;;;0.55;0.55;;;;;;;;;;5030762;28;20030;-73
2023/01/15 10:05:17;;;;;;;0.10;0.10;;;;;;;;;;5012170;28;20029;-74
2023/01/15 10:07:52;;;;;;;1.10;0.88;;;;;;;;;;5030349;28;20033;-73
2023/01/15 10:10:22;;;;;;;0.70;0.65;;;;;;;;;;5031026;28;20037;-73
2023/01/15 10:12:49;;;;;;;0.20;0.20;;;;;;;;;;5021694;28;20048;-73
2023/01/15 10:15:30;;;;;;;0.63;0.55;;;;;;;;;;5031494;28;20018;-73
2023/01/15 10:17:56;;;;;;;0.57;0.57;;;;;;;;;;5031207;28;20454;-73
2023/01/15 10:20:22;;;;;;;0.55;0.55;;;;;;;;;;5031508;28;20010;-73
2023/01/15 10:22:54;;;;;;;0.17;0.17;;;;;;;;;;5031348;28;20029;-73
2023/01/15 10:25:23;;;;;;;0.10;0.10;;;;;;;;;;5031385;28;20100;-73
2023/01/15 10:27:50;;;;;;;0.10;0.10;;;;;;;;;;5028308;28;20072;-74
2023/01/15 10:30:19;;;;;;;0.52;0.52;;;;;;;;;;5030329;28;20121;-75
2023/01/15 10:32:49;;;;;;;0.10;0.10;;;;;;;;;;5015316;28;20025;-77
2023/01/15 10:35:44;;;;;;;0.10;0.10;;;;;;;;;;5040238;28;20071;-76
2023/01/15 10:38:11;;;;;;;4.15;3.85;;;;;;;;;;5030554;28;20092;-78
2023/01/15 10:41:03;;;;;;;0.30;0.30;;;;;;;;;;5043586;28;20100;-77
2023/01/15 10:43:45;;;;;;;0.68;0.68;;;;;;;;;;5033931;28;20028;-77
2023/01/15 10:46:18;;;;;;;0.10;0.10;;;;;;;;;;5035561;28;20056;-76
2023/01/15 10:48:52;;;;;;;0.20;0.20;;;;;;;;;;5040426;28;20484;-79
2023/01/15 10:51:41;;;;;;;0.30;0.30;;;;;;;;;;5033779;28;20025;-77
2023/01/15 10:54:11;;;;;;;0.10;0.10;;;;;;;;;;5036147;28;20120;-78
2023/01/15 10:56:42;;;;;;;1.48;1.38;;;;;;;;;;5040196;28;20049;-76
2023/01/15 10:59:11;;;;;;;0.30;0.30;;;;;;;;;;5039021;28;20113;-76
2023/01/15 11:01:38;;;;;;;0.10;0.10;;;;;;;;;;5041708;28;20022;-77
2023/01/15 11:04:04;;;;;;;0.57;0.50;;;;;;;;;;5040366;28;20044;-81
2023/01/15 11:06:30;;;;;;;1.13;1.13;;;;;;;;;;5041674;28;20060;-81
2023/01/15 11:08:56;;;;;;;10.30;5.97;;;;;;;;;;5048954;28;20467;-76
2023/01/15 11:19:36;;;;;;;0.17;0.17;;;;;;;;;;5041880;28;20032;-76
2023/01/15 11:22:07;;;;;;;0.52;0.52;;;;;;;;;;5048985;28;20017;-76
2023/01/15 11:24:35;;;;;;;0.10;0.10;;;;;;;;;;5042292;28;20059;-76
2023/01/15 11:27:00;;;;;;;0.20;0.20;;;;;;;;;;5048910;28;20048;-76
2023/01/15 11:29:31;;;;;;;10.75;4.88;;;;;;;;;;5049205;28;20547;-77
2023/01/15 11:31:57;;;;;;;6.05;2.72;;;;;;;;;;5032392;28;20116;-78
2023/01/15 11:34:23;;;;;;;0.35;0.35;;;;;;;;;;5030160;28;20107;-76
2023/01/15 11:36:59;;;;;;;0.40;0.40;;;;;;;;;;5030073;28;20024;-76
2023/01/15 11:39:26;;;;;;;0.20;0.20;;;;;;;;;;5029967;28;20060;-77
2023/01/15 11:50:51;;;;;;;1.33;1.13;;;;;;;;;;5034345;28;20049;-74
2023/01/15 11:53:19;;;;;;;1.23;0.77;;;;;;;;;;5048339;28;20021;-73
2023/01/15 11:55:53;;;;;;;5.40;1.37;;;;;;;;;;5048900;28;20021;-73
2023/01/15 11:58:19;;;;;;;0.95;0.75;;;;;;;;;;5040772;28;20029;-76
2023/01/15 12:00:47;;;;;;;1.58;1.38;;;;;;;;;;5048996;28;20025;-76
2023/01/15 12:03:19;;;;;;;1.25;0.73;;;;;;;;;;5049244;28;20060;-75
2023/01/15 12:05:46;;;;;;;0.10;0.10;;;;;;;;;;5032891;28;20449;-77
2023/01/15 12:08:22;;;;;;;0.43;0.43;;;;;;;;;;5029409;28;20028;-76
2023/01/15 12:11:03;;;;;;;1.48;1.27;;;;;;;;;;5029353;28;20033;-76
2023/01/15 12:13:32;;;;;;;0.57;0.57;;;;;;;;;;5029695;28;20349;-74
2023/01/15 12:16:16;;;;;;;0.28;0.28;;;;;;;;;;5029155;28;20117;-77
2023/01/15 12:18:54;;;;;;;0.47;0.47;;;;;;;;;;5029491;28;20109;-76
2023/01/15 12:21:20;;;;;;;0.20;0.20;;;;;;;;;;5029506;28;20033;-74
2023/01/15 12:23:48;;;;;;;0.40;0.40;;;;;;;;;;5029268;28;20040;-74
2023/01/15 12:26:27;;;;;;;0.20;0.20;;;;;;;;;;5029342;28;20109;-76
2023/01/15 12:28:55;;;;;;;0.40;0.40;;;;;;;;;;5033474;28;20067;-73
2023/01/15 12:31:24;;;;;;;0.15;0.15;;;;;;;;;;5034212;28;20083;-71
2023/01/15 12:33:52;;;;;;;0.13;0.13;;;;;;;;;;5038892;28;20027;-76
2023/01/15 12:36:28;;;;;;;0.13;0.13;;;;;;;;;;5037538;28;20097;-80
2023/01/15 12:39:02;;;;;;;0.20;0.20;;;;;;;;;;5037871;28;20112;-73
2023/01/15 12:47:10;;;;;;;0.20;0.20;;;;;;;;;;5036619;28;20644;-72
2023/01/15 12:49:43;;;;;;;0.10;0.10;;;;;;;;;;5029749;28;20025;-72
2023/01/15 12:52:19;;;;;;;0.10;0.10;;;;;;;;;;5031328;28;20298;-73
2023/01/15 12:54:51;;;;;;;0.20;0.20;;;;;;;;;;5036222;28;20021;-77
2023/01/15 12:57:23;;;;;;;0.10;0.10;;;;;;;;;;5039893;28;20342;-72
2023/01/15 13:00:11;;;;;;;0.10;0.10;;;;;;;;;;5039956;28;20372;-73
2023/01/15 13:02:42;;;;;;;0.45;0.45;;;;;;;;;;5028258;28;20029;-76
2023/01/15 13:05:14;;;;;;;0.10;0.10;;;;;;;;;;5030433;28;20049;-74
2023/01/15 13:07:49;;;;;;;0.10;0.10;;;;;;;;;;5030005;28;20067;-72
2023/01/15 13:10:29;;;;;;;0.10;0.10;;;;;;;;;;5011831;28;20460;-72
2023/01/15 13:13:11;;;;;;;0.38;0.38;;;;;;;;;;5030408;28;20021;-72
2023/01/15 13:15:38;;;;;;;0.43;0.30;;;;;;;;;;5031796;28;20379;-73
2023/01/15 13:18:11;;;;;;;0.68;0.55;;;;;;;;;;5030610;28;20033;-72
2023/01/15 13:20:47;;;;;;;0.30;0.30;;;;;;;;;;5042466;28;20401;-72
2023/01/15 13:23:21;;;;;;;0.10;0.10;;;;;;;;;;5032528;28;20021;-72
2023/01/15 13:26:05;;;;;;;0.28;0.28;;;;;;;;;;5032149;28;20361;-72
2023/01/15 13:28:51;;;;;;;0.30;0.20;;;;;;;;;;5031524;28;20049;-72
2023/01/15 13:31:34;;;;;;;0.10;0.10;;;;;;;;;;5032166;28;20370;-73
2023/01/15 13:34:03;;;;;;;1.08;0.43;;;;;;;;;;5031833;28;20042;-72
2023/01/15 13:36:32;;;;;;;0.20;0.20;;;;;;;;;;5032290;28;20033;-72
2023/01/15 13:39:01;;;;;;;0.65;0.65;;;;;;;;;;5031957;28;20635;-72
2023/01/15 13:44:21;;;;;;;0.45;0.45;;;;;;;;;;5031758;28;20052;-72
2023/01/15 13:46:48;;;;;;;1.02;0.90;;;;;;;;;;5031788;28;20017;-72
2023/01/15 13:49:19;;;;;;;0.47;0.47;;;;;;;;;;5031523;28;20109;-75
2023/01/15 13:51:47;;;;;;;0.20;0.20;;;;;;;;;;5030523;28;20108;-73
2023/01/15 13:54:14;;;;;;;3.30;0.40;;;;;;;;;;5031345;28;20501;-74
2023/01/15 13:56:40;;;;;;;6.90;0.55;;;;;;;;;;5031965;28;20026;-72
2023/01/15 13:59:26;;;;;;;7.28;0.98;;;;;;;;;;5030097;28;20483;-76
2023/01/15 14:01:51;;;;;;;0.50;0.20;;;;;;;;;;5029971;28;20026;-72
2023/01/15 14:04:31;;;;;;;15.80;1.58;;;;;;;;;;5030531;28;20087;-72
2023/01/15 14:06:59;;;;;;;1.10;0.40;;;;;;;;;;5031176;28;20037;-72
2023/01/15 14:09:24;;;;;;;2.13;0.50;;;;;;;;;;5030845;28;20550;-72
2023/01/15 14:12:05;;;;;;;0.30;0.30;;;;;;;;;;5030880;28;20024;-76
2023/01/15 14:14:31;;;;;;;0.17;0.17;;;;;;;;;;5030693;28;20237;-72
2023/01/15 14:16:59;;;;;;;1.90;0.65;;;;;;;;;;5031151;28;20175;-73
2023/01/15 14:19:33;;;;;;;0.70;0.25;;;;;;;;;;5030782;28;20027;-72
2023/01/15 14:22:18;;;;;;;0.10;0.10;;;;;;;;;;5031029;28;20036;-72
2023/01/15 14:24:44;;;;;;;0.13;0.13;;;;;;;;;;5030594;28;20052;-74
2023/01/15 14:27:24;;;;;;;0.10;0.10;;;;;;;;;;5031179;28;20485;-73
2023/01/15 14:29:56;;;;;;;0.10;0.10;;;;;;;;;;5029924;28;20029;-73
2023/01/15 14:32:34;;;;;;;0.85;0.30;;;;;;;;;;5030896;28;20028;-73
2023/01/15 14:35:00;;;;;;;0.95;0.40;;;;;;;;;;5031032;28;20087;-72
2023/01/15 14:37:39;;;;;;;1.08;0.17;;;;;;;;;;5030568;28;20061;-72
2023/01/15 14:40:05;;;;;;;0.20;0.20;;;;;;;;;;5028291;28;20060;-71
2023/01/15 14:45:25;;;;;;;0.10;0.10;;;;;;;;;;5030905;28;20025;-72
2023/01/15 14:48:01;;;;;;;0.57;0.50;;;;;;;;;;5028077;28;20026;-72
2023/01/15 14:50:33;;;;;;;6.93;0.30;;;;;;;;;;5028965;28;20033;-73
2023/01/15 14:53:13;;;;;;;0.17;0.17;;;;;;;;;;5029021;28;20080;-73
2023/01/15 14:55:52;;;;;;;20.92;1.85;;;;;;;;;;5028535;28;20025;-72
2023/01/15 14:58:17;;;;;;;;;;;;;;;;;;5028797;28;20021;-72
2023/01/15 15:00:44;;;;;;;0.20;0.20;;;;;;;;;;5029139;28;19923;-73
2023/01/15 15:03:16;;;;;;;0.20;0.20;;;;;;;;;;5030484;28;20264;-71
2023/01/15 15:05:42;;;;;;;1.55;0.60;;;;;;;;;;5030392;28;20050;-72
2023/01/15 15:08:10;;;;;;;0.52;0.52;;;;;;;;;;5030366;28;20026;-73
2023/01/15 15:10:39;;;;;;;0.30;0.30;;;;;;;;;;5030154;28;20121;-72
2023/01/15 15:13:16;;;;;;;2.58;0.93;;;;;;;;;;5029432;28;20029;-72
2023/01/15 15:15:47;;;;;;;0.30;0.30;;;;;;;;;;5029519;28;20055;-72
2023/01/15 15:18:16;;;;;;;0.20;0.20;;;;;;;;;;5012609;28;20025;-72
2023/01/15 15:20:41;;;;;;;1.45;0.80;;;;;;;;;;5030466;28;20021;-73
2023/01/15 15:23:13;;;;;;;0.10;0.10;;;;;;;;;;5030274;28;20087;-72
2023/01/15 15:25:38;;;;;;;0.75;0.63;;;;;;;;;;5030271;28;20033;-72
2023/01/15 15:28:05;;;;;;;1.35;0.65;;;;;;;;;;5030035;28;20021;-72
2023/01/15 15:30:32;;;;;;;2.08;1.50;;;;;;;;;;5012598;28;20033;-74
2023/01/15 15:32:58;;;;;;;0.10;0.10;;;;;;;;;;5030429;28;20136;-72
2023/01/15 15:35:26;;;;;;;0.28;0.28;;;;;;;;;;5029976;28;20044;-72
2023/01/15 15:37:52;;;;;;;0.10;0.10;;;;;;;;;;5029090;28;20381;-73
2023/01/15 15:40:19;;;;;;;0.10;0.10;;;;;;;;;;5029970;28;20075;-72
2023/01/15 15:48:52;;;;;;;0.10;0.10;;;;;;;;;;5030178;28;20046;-72
2023/01/15 15:51:28;;;;;;;0.13;0.13;;;;;;;;;;5030039;28;20079;-72
2023/01/15 15:54:14;;;;;;;0.25;0.25;;;;;;;;;;5029264;28;20060;-72
2023/01/15 15:57:00;;;;;;;1.08;0.65;;;;;;;;;;5029406;28;20024;-72
2023/01/15 15:59:26;;;;;;;0.10;0.10;;;;;;;;;;5029205;28;20034;-73